Sharp, Louisiana
Current Conditions -  °F | °C
As of 5:53 PM on Wednesday 28 Jan 2015 (Local Time) from KAEX Reporting Station
Clear Clear  
Wind Chill: 60°   Ceiling: Unl
Heat Index: 60°   Visibility: 10mi
Dew Point: 44°   Wind: 8mph
Humidity: 55%   Direction: 160°SSE
Pressure: 30.12"   Gusts: NA
Location:  31.4254°N, 92.7765°W
Report Text: KAEX 282353Z 16007KT 10SM CLR 16/07 A3012 RMK AO2 SLP204 T01560067 10228 20156 58012
Loading
Personal Weather Stations






























Interactive Weather Map New forecast layout! Learn more

10-Day Weather Forecast

Advertisements
Track Severe Weather on mobile